Nearby METAR Reports

 

KMTN - Baltimore/Martin, Maryland, USA
Distance from station: SSE 8mi, 13km
Updated: Thu, 11-Feb-2016 1:45pm EST
Partly cloudy
Partly cloudy
 Wind from W
Wind: W 24 mph , 39 km/h, Gust: 29 mph , 46 km/h
Temperature: 28°F , -2°C
Wind Chill: 14°F , -10°C
Dew Point: 5°F , -15°C
Humidity: 37%
Barometer: 30.11 inHg , 1019.6 hPa
Clouds: Partly cloudy
Visibility: 10 miles , 16 km
Cloud details: Partly cloudy 5500 ft
2016/02/11 18:45 KMTN 111845Z 28021G25KT 10SM SCT055 M02/M15 A3011
KDMH - Baltimore/Dwntwn, Maryland, USA
Distance from station: SW 12mi, 19km
Updated: Thu, 11-Feb-2016 12:54pm EST

 
Temperature: 25°F , -4°C
Dew Point: -0°F , -18°C
Humidity: 33%
Barometer: 30.06 inHg , 1017.9 hPa
2016/02/11 17:54 KDMH 111754Z AUTO M04/M18 A3006 RMK AO1 SLP180 T10441178 11033 21061 58002
 
KBWI - Balto/Wash Intl, Maryland, USA
Distance from station: SSW 20mi, 33km
Updated: Thu, 11-Feb-2016 12:54pm EST
Partly cloudy
Partly cloudy
 Wind from WNW
Wind: WNW 23 mph , 37 km/h, Gust: 37 mph , 59 km/h
Temperature: 27°F , -3°C
Wind Chill: 13°F , -11°C
Dew Point: 1°F , -17°C
Humidity: 33%
Barometer: 30.09 inHg , 1019 hPa
Clouds: Partly cloudy
Visibility: 10 miles , 16 km
Cloud details: Partly cloudy 5500 ft
2016/02/11 17:54 KBWI 111754Z 29020G32KT 10SM SCT055 M03/M17 A3009 RMK AO2 PK WND 28032/1749 SLP192 T10331167 11033 21072 58001
KDMW - Carroll Cnty, Maryland, USA
Distance from station: WNW 30mi, 48km
Updated: Thu, 11-Feb-2016 1:40pm EST
Partly cloudy
Partly cloudy
 Wind from W
Wind: W 18 mph , 30 km/h, Gust: 29 mph , 46 km/h
Temperature: 21°F , -6°C
Wind Chill: 6°F , -14°C
Dew Point: 10°F , -12°C
Humidity: 63%
Barometer: 30.04 inHg , 1017.3 hPa
Clouds: Partly cloudy
Visibility: 7 miles , 11 km
Cloud details: Partly cloudy 4800 ft
2016/02/11 18:40 KDMW 111840Z AUTO 28016G25KT 7SM SCT048 M06/M12 A3004 RMK AO2
 
KNAK - Annapolis/Naval, Maryland, USA
Distance from station: S 30mi, 48km
Updated: Thu, 11-Feb-2016 12:54pm EST
Mostly cloudy
Mostly cloudy
 Wind from WNW
Wind: WNW 13 mph , 20 km/h, Gust: 25 mph , 41 km/h
Temperature: 27°F , -3°C
Wind Chill: 16°F , -9°C
Dew Point: 5°F , -15°C
Humidity: 39%
Barometer: 30.11 inHg , 1019.6 hPa
Clouds: Mostly cloudy
Visibility: 10 miles , 16 km
Cloud details: Mostly cloudy 6000 ft
2016/02/11 17:54 KNAK 111754Z AUTO 29011G22KT 10SM BKN060 M03/M15 A3011 RMK AO2 SLP198 T10331150 11028 21061 58001
KW29 - Stevensville, Maryland, USA
Distance from station: SSE 31mi, 50km
Updated: Thu, 11-Feb-2016 1:39pm EST

 Wind from WNW
Wind: WNW 15 mph , 24 km/h, Gust: 25 mph , 41 km/h
Temperature: 28°F , -2°C
Wind Chill: 16°F , -9°C
Dew Point: 5°F , -15°C
Humidity: 37%
Barometer: 30.10 inHg , 1019.3 hPa
Visibility: 10 miles , 16 km
2016/02/11 18:39 KW29 111839Z AUTO 29013G22KT 10SM M02/M15 A3010 RMK AO1
 
KCGS - College Park, Maryland, USA
Distance from station: SW 38mi, 61km
Updated: Thu, 11-Feb-2016 1:35pm EST
Clear
Clear
 Wind from WNW
Wind: WNW 17 mph , 28 km/h, Gust: 26 mph , 43 km/h
Temperature: 28°F , -2°C
Wind Chill: 16°F , -9°C
Dew Point: 1°F , -17°C
Humidity: 31%
Barometer: 30.11 inHg , 1019.6 hPa
Clouds: Clear
Visibility: 10 miles , 16 km
2016/02/11 18:35 KCGS 111835Z AUTO 30015G23KT 10SM CLR M02/M17 A3011 RMK AO1
KGAI - Gaithersburg, Maryland, USA
Distance from station: WSW 40mi, 65km
Updated: Thu, 11-Feb-2016 1:35pm EST
Mostly cloudy
Mostly cloudy
 Wind from WNW
Wind: WNW 14 mph , 22 km/h, Gust: 23 mph , 37 km/h
Temperature: 21°F , -6°C
Wind Chill: 8°F , -13°C
Dew Point: 3°F , -16°C
Humidity: 45%
Barometer: 30.12 inHg , 1020 hPa
Clouds: Mostly cloudy
Visibility: 10 miles , 16 km
Cloud details: Mostly cloudy 6000 ft
2016/02/11 18:35 KGAI 111835Z AUTO 29012G20KT 10SM BKN060 M06/M16 A3012 RMK AO1
 
KTHV - York, Pennsylvania, USA
Distance from station: NNW 40mi, 65km
Updated: Thu, 11-Feb-2016 12:53pm EST
Few Clouds
Few Clouds
 Wind from WNW
Wind: WNW 15 mph , 24 km/h, Gust: 25 mph , 41 km/h
Temperature: 19°F , -7°C
Wind Chill: 5°F , -15°C
Dew Point: 1°F , -17°C
Humidity: 45%
Barometer: 30.05 inHg , 1017.6 hPa
Clouds: Few Clouds
Visibility: 10 miles , 16 km
Cloud details: Few Clouds 5500 ft
2016/02/11 17:53 KTHV 111753Z AUTO 29013G22KT 10SM FEW055 M07/M17 A3005 RMK AO2 SLP184 60000 T10671167 11056 21094 50001
KFDK - Frederick, Maryland, USA
Distance from station: W 47mi, 75km
Updated: Thu, 11-Feb-2016 1:50pm EST

 
Visibility: 47 miles
2016/02/11 18:50 KFDK 111850Z 29017G25 10SM BKN060 M04/M14 A3014
 
KESN - Easton/Newnam, Maryland, USA
Distance from station: SSE 48mi, 78km
Updated: Thu, 11-Feb-2016 12:50pm EST
Partly cloudy
Partly cloudy
 Wind from WNW
Wind: WNW 21 mph , 33 km/h, Gust: 29 mph , 46 km/h
Temperature: 28°F , -2°C
Wind Chill: 14°F , -10°C
Dew Point: 5°F , -15°C
Humidity: 37%
Barometer: 30.12 inHg , 1020 hPa
Clouds: Partly cloudy
Visibility: 10 miles , 16 km
Cloud details: Partly cloudy 5000 ft
2016/02/11 17:50 KESN 111750Z 30018G25KT 10SM SCT050 M02/M15 A3012
KDCA - Washington/Natl, Washington D.c., USA
Distance from station: SW 49mi, 79km
Updated: Thu, 11-Feb-2016 1:52pm EST
Partly cloudy
Partly cloudy
 Wind from NW
Wind: NW 20 mph , 31 km/h, Gust: 29 mph , 46 km/h
Temperature: 28°F , -2°C
Wind Chill: 15°F , -9°C
Dew Point: 1°F , -17°C
Humidity: 31%
Barometer: 30.12 inHg , 1020 hPa
Clouds: Partly cloudy
Visibility: 10 miles , 16 km
Cloud details: Partly cloudy 6000 ft
2016/02/11 18:52 KDCA 111852Z 32017G25KT 10SM SCT060 M02/M17 A3012 RMK AO2 PK WND 29027/1823 SLP199 T10221167
 
KLNS - Lancaster, Pennsylvania, USA
Distance from station: N 49mi, 79km
Updated: Thu, 11-Feb-2016 12:53pm EST
Mostly cloudy
Mostly cloudy
 Wind from W
Wind: W 17 mph , 28 km/h, Gust: 26 mph , 43 km/h
Temperature: 21°F , -6°C
Wind Chill: 7°F , -14°C
Dew Point: 7°F , -14°C
Humidity: 54%
Barometer: 30.02 inHg , 1016.6 hPa
Clouds: Mostly cloudy
Visibility: 10 miles , 16 km
Cloud details: Mostly cloudy 5500 ft
2016/02/11 17:53 KLNS 111753Z AUTO 28015G23KT 10SM BKN055 M06/M14 A3002 RMK AO2 PK WND 29030/1654 SLP170 60000 T10611144 11061 21083 58001
KILG - Wilmington, Delaware, USA
Distance from station: ENE 50mi, 81km
Updated: Thu, 11-Feb-2016 1:51pm EST
Overcast
Overcast
 Wind from W
Wind: W 18 mph , 30 km/h, Gust: 28 mph , 44 km/h
Temperature: 25°F , -4°C
Wind Chill: 11°F , -12°C
Dew Point: 7°F , -14°C
Humidity: 46%
Barometer: 30.05 inHg , 1017.6 hPa
Clouds: Overcast
Visibility: 10 miles , 16 km
Cloud details: Overcast 5000 ft
2016/02/11 18:51 KILG 111851Z 26016G24KT 10SM OVC050 M04/M14 A3005 RMK AO2 PK WND 27031/1812 SLP178 T10441139